sensor_id;sensor_type;location;lat;lon;timestamp;P1;durP1;ratioP1;P2;durP2;ratioP2
48207;SDS011;33997;53.278;9.708;2024-01-06T00:00:29;4.28;;;2.53;;
48207;SDS011;33997;53.278;9.708;2024-01-06T00:02:55;5.95;;;2.92;;
48207;SDS011;33997;53.278;9.708;2024-01-06T00:05:20;6.00;;;2.30;;
48207;SDS011;33997;53.278;9.708;2024-01-06T00:07:46;6.97;;;2.70;;
48207;SDS011;33997;53.278;9.708;2024-01-06T00:10:11;5.25;;;2.65;;
48207;SDS011;33997;53.278;9.708;2024-01-06T00:12:37;6.53;;;2.80;;
48207;SDS011;33997;53.278;9.708;2024-01-06T00:15:03;3.88;;;1.95;;
48207;SDS011;33997;53.278;9.708;2024-01-06T00:17:29;5.38;;;2.42;;
48207;SDS011;33997;53.278;9.708;2024-01-06T00:19:54;5.32;;;2.20;;
48207;SDS011;33997;53.278;9.708;2024-01-06T00:22:20;3.92;;;1.88;;
48207;SDS011;33997;53.278;9.708;2024-01-06T00:24:46;3.95;;;1.92;;
48207;SDS011;33997;53.278;9.708;2024-01-06T00:27:11;4.05;;;2.13;;
48207;SDS011;33997;53.278;9.708;2024-01-06T00:29:38;4.90;;;2.40;;
48207;SDS011;33997;53.278;9.708;2024-01-06T00:32:04;5.55;;;2.70;;
48207;SDS011;33997;53.278;9.708;2024-01-06T00:34:30;5.57;;;2.40;;
48207;SDS011;33997;53.278;9.708;2024-01-06T00:36:55;5.45;;;2.78;;
48207;SDS011;33997;53.278;9.708;2024-01-06T00:39:20;5.07;;;2.58;;
48207;SDS011;33997;53.278;9.708;2024-01-06T00:41:46;4.53;;;2.40;;
48207;SDS011;33997;53.278;9.708;2024-01-06T00:44:11;5.07;;;2.40;;
48207;SDS011;33997;53.278;9.708;2024-01-06T00:46:37;6.35;;;2.60;;
48207;SDS011;33997;53.278;9.708;2024-01-06T00:49:04;5.15;;;2.58;;
48207;SDS011;33997;53.278;9.708;2024-01-06T00:51:29;4.97;;;2.47;;
48207;SDS011;33997;53.278;9.708;2024-01-06T00:53:55;5.32;;;2.55;;
48207;SDS011;33997;53.278;9.708;2024-01-06T00:56:20;5.18;;;2.60;;
48207;SDS011;33997;53.278;9.708;2024-01-06T00:58:46;4.95;;;2.17;;
48207;SDS011;33997;53.278;9.708;2024-01-06T01:01:11;5.28;;;2.33;;
48207;SDS011;33997;53.278;9.708;2024-01-06T01:03:37;6.88;;;2.63;;
48207;SDS011;33997;53.278;9.708;2024-01-06T01:06:02;5.65;;;2.40;;
48207;SDS011;33997;53.278;9.708;2024-01-06T01:08:28;5.60;;;2.60;;
48207;SDS011;33997;53.278;9.708;2024-01-06T01:10:55;4.57;;;2.05;;
48207;SDS011;33997;53.278;9.708;2024-01-06T01:13:21;4.40;;;2.33;;
48207;SDS011;33997;53.278;9.708;2024-01-06T01:15:47;6.45;;;2.88;;
48207;SDS011;33997;53.278;9.708;2024-01-06T01:18:13;5.45;;;2.10;;
48207;SDS011;33997;53.278;9.708;2024-01-06T01:20:38;7.68;;;2.90;;
48207;SDS011;33997;53.278;9.708;2024-01-06T01:23:04;4.05;;;2.13;;
48207;SDS011;33997;53.278;9.708;2024-01-06T01:25:29;5.60;;;2.00;;
48207;SDS011;33997;53.278;9.708;2024-01-06T01:27:55;5.30;;;2.58;;
48207;SDS011;33997;53.278;9.708;2024-01-06T01:30:20;5.82;;;2.08;;
48207;SDS011;33997;53.278;9.708;2024-01-06T01:32:45;6.18;;;3.05;;
48207;SDS011;33997;53.278;9.708;2024-01-06T01:35:11;5.88;;;2.55;;
48207;SDS011;33997;53.278;9.708;2024-01-06T01:37:36;5.60;;;2.10;;
48207;SDS011;33997;53.278;9.708;2024-01-06T01:40:02;7.22;;;2.28;;
48207;SDS011;33997;53.278;9.708;2024-01-06T01:42:28;7.45;;;2.90;;
48207;SDS011;33997;53.278;9.708;2024-01-06T01:44:53;4.18;;;2.10;;
48207;SDS011;33997;53.278;9.708;2024-01-06T01:47:18;5.75;;;2.80;;
48207;SDS011;33997;53.278;9.708;2024-01-06T01:49:46;7.35;;;2.63;;
48207;SDS011;33997;53.278;9.708;2024-01-06T01:52:12;6.05;;;2.17;;
48207;SDS011;33997;53.278;9.708;2024-01-06T01:54:40;5.35;;;2.30;;
48207;SDS011;33997;53.278;9.708;2024-01-06T01:57:06;5.05;;;2.45;;
48207;SDS011;33997;53.278;9.708;2024-01-06T01:59:32;4.40;;;2.10;;
48207;SDS011;33997;53.278;9.708;2024-01-06T02:01:58;3.50;;;1.75;;
48207;SDS011;33997;53.278;9.708;2024-01-06T02:04:24;5.22;;;2.13;;
48207;SDS011;33997;53.278;9.708;2024-01-06T02:06:50;5.18;;;2.13;;
48207;SDS011;33997;53.278;9.708;2024-01-06T02:09:15;7.05;;;2.00;;
48207;SDS011;33997;53.278;9.708;2024-01-06T02:11:41;7.55;;;2.67;;
48207;SDS011;33997;53.278;9.708;2024-01-06T02:14:06;6.50;;;2.30;;
48207;SDS011;33997;53.278;9.708;2024-01-06T02:16:31;5.05;;;2.80;;
48207;SDS011;33997;53.278;9.708;2024-01-06T02:18:57;5.85;;;2.35;;
48207;SDS011;33997;53.278;9.708;2024-01-06T02:21:23;6.65;;;2.58;;
48207;SDS011;33997;53.278;9.708;2024-01-06T02:23:49;4.78;;;2.42;;
48207;SDS011;33997;53.278;9.708;2024-01-06T02:26:14;7.05;;;2.42;;
48207;SDS011;33997;53.278;9.708;2024-01-06T02:28:41;5.85;;;2.45;;
48207;SDS011;33997;53.278;9.708;2024-01-06T02:31:06;6.35;;;2.30;;
48207;SDS011;33997;53.278;9.708;2024-01-06T02:33:32;6.65;;;2.30;;
48207;SDS011;33997;53.278;9.708;2024-01-06T02:35:57;6.60;;;2.50;;
48207;SDS011;33997;53.278;9.708;2024-01-06T02:38:22;4.50;;;2.30;;
48207;SDS011;33997;53.278;9.708;2024-01-06T02:40:48;4.10;;;1.80;;
48207;SDS011;33997;53.278;9.708;2024-01-06T02:43:13;5.72;;;2.00;;
48207;SDS011;33997;53.278;9.708;2024-01-06T02:45:39;2.47;;;1.58;;
48207;SDS011;33997;53.278;9.708;2024-01-06T02:48:05;6.47;;;2.10;;
48207;SDS011;33997;53.278;9.708;2024-01-06T02:50:30;4.45;;;1.55;;
48207;SDS011;33997;53.278;9.708;2024-01-06T02:52:56;6.07;;;2.05;;
48207;SDS011;33997;53.278;9.708;2024-01-06T02:55:21;5.00;;;1.70;;
48207;SDS011;33997;53.278;9.708;2024-01-06T02:57:46;6.45;;;2.13;;
48207;SDS011;33997;53.278;9.708;2024-01-06T03:00:12;4.38;;;2.05;;
48207;SDS011;33997;53.278;9.708;2024-01-06T03:02:38;6.35;;;1.90;;
48207;SDS011;33997;53.278;9.708;2024-01-06T03:05:07;4.20;;;1.60;;
48207;SDS011;33997;53.278;9.708;2024-01-06T03:07:33;5.82;;;2.20;;
48207;SDS011;33997;53.278;9.708;2024-01-06T03:09:58;4.18;;;2.28;;
48207;SDS011;33997;53.278;9.708;2024-01-06T03:12:23;4.65;;;1.98;;
48207;SDS011;33997;53.278;9.708;2024-01-06T03:14:49;4.55;;;1.98;;
48207;SDS011;33997;53.278;9.708;2024-01-06T03:17:16;3.70;;;1.83;;
48207;SDS011;33997;53.278;9.708;2024-01-06T03:19:41;5.05;;;2.05;;
48207;SDS011;33997;53.278;9.708;2024-01-06T03:22:07;4.72;;;2.17;;
48207;SDS011;33997;53.278;9.708;2024-01-06T03:24:32;3.40;;;1.75;;
48207;SDS011;33997;53.278;9.708;2024-01-06T03:26:58;5.30;;;2.40;;
48207;SDS011;33997;53.278;9.708;2024-01-06T03:29:23;3.72;;;1.88;;
48207;SDS011;33997;53.278;9.708;2024-01-06T03:31:49;5.75;;;2.72;;
48207;SDS011;33997;53.278;9.708;2024-01-06T03:34:14;5.22;;;2.28;;
48207;SDS011;33997;53.278;9.708;2024-01-06T03:36:40;4.65;;;2.25;;
48207;SDS011;33997;53.278;9.708;2024-01-06T03:39:06;2.28;;;1.52;;
48207;SDS011;33997;53.278;9.708;2024-01-06T03:41:32;4.78;;;1.80;;
48207;SDS011;33997;53.278;9.708;2024-01-06T03:43:57;4.95;;;2.40;;
48207;SDS011;33997;53.278;9.708;2024-01-06T03:46:23;4.47;;;2.38;;
48207;SDS011;33997;53.278;9.708;2024-01-06T03:48:49;5.20;;;2.03;;
48207;SDS011;33997;53.278;9.708;2024-01-06T03:51:14;4.95;;;2.17;;
48207;SDS011;33997;53.278;9.708;2024-01-06T03:53:40;5.47;;;2.22;;
48207;SDS011;33997;53.278;9.708;2024-01-06T03:56:06;5.03;;;2.13;;
48207;SDS011;33997;53.278;9.708;2024-01-06T03:58:31;4.45;;;2.08;;
48207;SDS011;33997;53.278;9.708;2024-01-06T04:00:57;5.05;;;2.65;;
48207;SDS011;33997;53.278;9.708;2024-01-06T04:03:23;4.53;;;2.17;;
48207;SDS011;33997;53.278;9.708;2024-01-06T04:05:48;5.47;;;2.28;;
48207;SDS011;33997;53.278;9.708;2024-01-06T04:08:14;5.78;;;2.45;;
48207;SDS011;33997;53.278;9.708;2024-01-06T04:10:39;5.68;;;2.50;;
48207;SDS011;33997;53.278;9.708;2024-01-06T04:13:06;4.18;;;2.17;;
48207;SDS011;33997;53.278;9.708;2024-01-06T04:15:32;5.60;;;2.17;;
48207;SDS011;33997;53.278;9.708;2024-01-06T04:18:00;5.68;;;2.15;;
48207;SDS011;33997;53.278;9.708;2024-01-06T04:20:28;5.95;;;2.75;;
48207;SDS011;33997;53.278;9.708;2024-01-06T04:22:53;5.18;;;2.47;;
48207;SDS011;33997;53.278;9.708;2024-01-06T04:25:19;5.90;;;2.42;;
48207;SDS011;33997;53.278;9.708;2024-01-06T04:27:44;7.28;;;2.67;;
48207;SDS011;33997;53.278;9.708;2024-01-06T04:30:11;4.50;;;2.42;;
48207;SDS011;33997;53.278;9.708;2024-01-06T04:32:38;5.72;;;2.22;;
48207;SDS011;33997;53.278;9.708;2024-01-06T04:35:03;4.45;;;2.15;;
48207;SDS011;33997;53.278;9.708;2024-01-06T04:37:29;5.40;;;2.50;;
48207;SDS011;33997;53.278;9.708;2024-01-06T04:39:55;4.97;;;2.95;;
48207;SDS011;33997;53.278;9.708;2024-01-06T04:42:21;5.60;;;2.65;;
48207;SDS011;33997;53.278;9.708;2024-01-06T04:44:47;7.25;;;2.83;;
48207;SDS011;33997;53.278;9.708;2024-01-06T04:47:13;4.47;;;2.13;;
48207;SDS011;33997;53.278;9.708;2024-01-06T04:49:38;5.53;;;2.38;;
48207;SDS011;33997;53.278;9.708;2024-01-06T04:52:04;5.65;;;2.42;;
48207;SDS011;33997;53.278;9.708;2024-01-06T04:54:29;5.93;;;2.70;;
48207;SDS011;33997;53.278;9.708;2024-01-06T04:56:55;6.30;;;2.45;;
48207;SDS011;33997;53.278;9.708;2024-01-06T04:59:21;4.50;;;2.28;;
48207;SDS011;33997;53.278;9.708;2024-01-06T05:01:46;7.03;;;3.47;;
48207;SDS011;33997;53.278;9.708;2024-01-06T05:04:12;6.78;;;2.97;;
48207;SDS011;33997;53.278;9.708;2024-01-06T05:06:37;6.65;;;2.58;;
48207;SDS011;33997;53.278;9.708;2024-01-06T05:09:03;5.47;;;2.97;;
48207;SDS011;33997;53.278;9.708;2024-01-06T05:11:28;7.80;;;2.75;;
48207;SDS011;33997;53.278;9.708;2024-01-06T05:13:54;4.18;;;2.25;;
48207;SDS011;33997;53.278;9.708;2024-01-06T05:16:19;5.00;;;2.58;;
48207;SDS011;33997;53.278;9.708;2024-01-06T05:18:45;5.90;;;3.03;;
48207;SDS011;33997;53.278;9.708;2024-01-06T05:21:10;7.22;;;2.60;;
48207;SDS011;33997;53.278;9.708;2024-01-06T05:23:36;5.35;;;2.28;;
48207;SDS011;33997;53.278;9.708;2024-01-06T05:26:01;5.68;;;3.08;;
48207;SDS011;33997;53.278;9.708;2024-01-06T05:28:27;5.47;;;2.58;;
48207;SDS011;33997;53.278;9.708;2024-01-06T05:30:52;8.70;;;3.17;;
48207;SDS011;33997;53.278;9.708;2024-01-06T05:33:18;8.18;;;2.63;;
48207;SDS011;33997;53.278;9.708;2024-01-06T05:35:43;5.20;;;2.80;;
48207;SDS011;33997;53.278;9.708;2024-01-06T05:38:09;5.88;;;2.65;;
48207;SDS011;33997;53.278;9.708;2024-01-06T05:40:34;6.70;;;2.17;;
48207;SDS011;33997;53.278;9.708;2024-01-06T05:42:59;6.00;;;2.55;;
48207;SDS011;33997;53.278;9.708;2024-01-06T05:45:25;6.40;;;3.38;;
48207;SDS011;33997;53.278;9.708;2024-01-06T05:47:50;7.03;;;2.95;;
48207;SDS011;33997;53.278;9.708;2024-01-06T05:50:16;4.80;;;2.75;;
48207;SDS011;33997;53.278;9.708;2024-01-06T05:52:42;6.43;;;3.30;;
48207;SDS011;33997;53.278;9.708;2024-01-06T05:55:07;8.32;;;3.63;;
48207;SDS011;33997;53.278;9.708;2024-01-06T05:57:34;5.78;;;2.75;;
48207;SDS011;33997;53.278;9.708;2024-01-06T05:59:59;6.75;;;3.13;;
48207;SDS011;33997;53.278;9.708;2024-01-06T06:02:25;5.55;;;2.80;;
48207;SDS011;33997;53.278;9.708;2024-01-06T06:04:51;6.28;;;2.80;;
48207;SDS011;33997;53.278;9.708;2024-01-06T06:07:17;6.60;;;2.70;;
48207;SDS011;33997;53.278;9.708;2024-01-06T06:09:43;6.50;;;2.95;;
48207;SDS011;33997;53.278;9.708;2024-01-06T06:12:08;6.85;;;3.42;;
48207;SDS011;33997;53.278;9.708;2024-01-06T06:14:34;7.25;;;3.15;;
48207;SDS011;33997;53.278;9.708;2024-01-06T06:16:59;7.47;;;3.13;;
48207;SDS011;33997;53.278;9.708;2024-01-06T06:19:24;7.22;;;3.28;;
48207;SDS011;33997;53.278;9.708;2024-01-06T06:21:50;7.63;;;3.83;;
48207;SDS011;33997;53.278;9.708;2024-01-06T06:24:15;7.88;;;3.55;;
48207;SDS011;33997;53.278;9.708;2024-01-06T06:26:41;7.35;;;2.95;;
48207;SDS011;33997;53.278;9.708;2024-01-06T06:29:06;6.20;;;3.25;;
48207;SDS011;33997;53.278;9.708;2024-01-06T06:31:32;7.25;;;3.97;;
48207;SDS011;33997;53.278;9.708;2024-01-06T06:33:57;7.63;;;4.05;;
48207;SDS011;33997;53.278;9.708;2024-01-06T06:36:23;8.57;;;3.65;;
48207;SDS011;33997;53.278;9.708;2024-01-06T06:38:48;6.95;;;3.22;;
48207;SDS011;33997;53.278;9.708;2024-01-06T06:41:14;9.43;;;3.72;;
48207;SDS011;33997;53.278;9.708;2024-01-06T06:43:40;9.95;;;3.75;;
48207;SDS011;33997;53.278;9.708;2024-01-06T06:46:06;7.75;;;4.18;;
48207;SDS011;33997;53.278;9.708;2024-01-06T06:48:31;9.27;;;4.28;;
48207;SDS011;33997;53.278;9.708;2024-01-06T06:50:57;8.32;;;4.05;;
48207;SDS011;33997;53.278;9.708;2024-01-06T06:53:22;8.68;;;3.85;;
48207;SDS011;33997;53.278;9.708;2024-01-06T06:55:48;7.68;;;3.80;;
48207;SDS011;33997;53.278;9.708;2024-01-06T06:58:13;7.85;;;3.97;;
48207;SDS011;33997;53.278;9.708;2024-01-06T07:00:39;10.00;;;4.20;;
48207;SDS011;33997;53.278;9.708;2024-01-06T07:03:04;12.55;;;4.35;;
48207;SDS011;33997;53.278;9.708;2024-01-06T07:05:30;12.32;;;5.22;;
48207;SDS011;33997;53.278;9.708;2024-01-06T07:07:55;9.13;;;4.07;;
48207;SDS011;33997;53.278;9.708;2024-01-06T07:10:21;9.35;;;4.47;;
48207;SDS011;33997;53.278;9.708;2024-01-06T07:12:47;7.55;;;4.05;;
48207;SDS011;33997;53.278;9.708;2024-01-06T07:15:12;10.15;;;4.28;;
48207;SDS011;33997;53.278;9.708;2024-01-06T07:17:38;9.82;;;4.28;;
48207;SDS011;33997;53.278;9.708;2024-01-06T07:20:04;8.93;;;3.85;;
48207;SDS011;33997;53.278;9.708;2024-01-06T07:22:31;9.80;;;4.47;;
48207;SDS011;33997;53.278;9.708;2024-01-06T07:24:59;9.38;;;3.92;;
48207;SDS011;33997;53.278;9.708;2024-01-06T07:27:25;8.77;;;4.00;;
48207;SDS011;33997;53.278;9.708;2024-01-06T07:29:50;10.18;;;4.28;;
48207;SDS011;33997;53.278;9.708;2024-01-06T07:32:16;9.32;;;3.80;;
48207;SDS011;33997;53.278;9.708;2024-01-06T07:34:41;10.70;;;4.05;;
48207;SDS011;33997;53.278;9.708;2024-01-06T07:37:08;11.07;;;3.67;;
48207;SDS011;33997;53.278;9.708;2024-01-06T07:39:33;11.20;;;4.72;;
48207;SDS011;33997;53.278;9.708;2024-01-06T07:41:59;8.38;;;4.60;;
48207;SDS011;33997;53.278;9.708;2024-01-06T07:44:24;9.93;;;4.38;;
48207;SDS011;33997;53.278;9.708;2024-01-06T07:46:50;10.77;;;4.32;;
48207;SDS011;33997;53.278;9.708;2024-01-06T07:49:16;10.15;;;4.13;;
48207;SDS011;33997;53.278;9.708;2024-01-06T07:51:42;9.68;;;3.55;;
48207;SDS011;33997;53.278;9.708;2024-01-06T07:54:07;10.45;;;4.20;;
48207;SDS011;33997;53.278;9.708;2024-01-06T07:56:34;9.88;;;4.82;;
48207;SDS011;33997;53.278;9.708;2024-01-06T07:59:00;7.90;;;4.13;;
48207;SDS011;33997;53.278;9.708;2024-01-06T08:01:26;9.35;;;4.85;;
48207;SDS011;33997;53.278;9.708;2024-01-06T08:03:52;9.65;;;5.03;;
48207;SDS011;33997;53.278;9.708;2024-01-06T08:06:17;7.13;;;3.75;;
48207;SDS011;33997;53.278;9.708;2024-01-06T08:08:42;9.63;;;4.35;;
48207;SDS011;33997;53.278;9.708;2024-01-06T08:11:08;8.63;;;4.10;;
48207;SDS011;33997;53.278;9.708;2024-01-06T08:13:33;7.93;;;3.95;;
48207;SDS011;33997;53.278;9.708;2024-01-06T08:15:59;9.15;;;4.10;;
48207;SDS011;33997;53.278;9.708;2024-01-06T08:18:25;8.82;;;3.67;;
48207;SDS011;33997;53.278;9.708;2024-01-06T08:20:50;8.30;;;4.28;;
48207;SDS011;33997;53.278;9.708;2024-01-06T08:23:15;11.57;;;4.70;;
48207;SDS011;33997;53.278;9.708;2024-01-06T08:25:43;9.45;;;4.10;;
48207;SDS011;33997;53.278;9.708;2024-01-06T08:28:10;9.20;;;4.32;;
48207;SDS011;33997;53.278;9.708;2024-01-06T08:30:36;7.32;;;3.90;;
48207;SDS011;33997;53.278;9.708;2024-01-06T08:33:02;9.10;;;4.20;;
48207;SDS011;33997;53.278;9.708;2024-01-06T08:35:27;10.48;;;4.68;;
48207;SDS011;33997;53.278;9.708;2024-01-06T08:37:53;7.93;;;3.65;;
48207;SDS011;33997;53.278;9.708;2024-01-06T08:40:18;10.50;;;5.00;;
48207;SDS011;33997;53.278;9.708;2024-01-06T08:42:43;12.88;;;4.88;;
48207;SDS011;33997;53.278;9.708;2024-01-06T08:45:09;9.00;;;3.88;;
48207;SDS011;33997;53.278;9.708;2024-01-06T08:47:35;9.52;;;4.25;;
48207;SDS011;33997;53.278;9.708;2024-01-06T08:50:00;9.35;;;4.32;;
48207;SDS011;33997;53.278;9.708;2024-01-06T08:52:25;11.77;;;5.20;;
48207;SDS011;33997;53.278;9.708;2024-01-06T08:54:51;7.53;;;4.00;;
48207;SDS011;33997;53.278;9.708;2024-01-06T08:57:16;7.68;;;4.65;;
48207;SDS011;33997;53.278;9.708;2024-01-06T08:59:42;9.35;;;4.30;;
48207;SDS011;33997;53.278;9.708;2024-01-06T09:02:10;10.15;;;4.60;;
48207;SDS011;33997;53.278;9.708;2024-01-06T09:04:35;10.27;;;4.55;;
48207;SDS011;33997;53.278;9.708;2024-01-06T09:07:01;11.57;;;4.32;;
48207;SDS011;33997;53.278;9.708;2024-01-06T09:09:26;11.52;;;5.18;;
48207;SDS011;33997;53.278;9.708;2024-01-06T09:11:53;11.45;;;4.15;;
48207;SDS011;33997;53.278;9.708;2024-01-06T09:14:18;7.93;;;4.53;;
48207;SDS011;33997;53.278;9.708;2024-01-06T09:16:44;9.38;;;4.50;;
48207;SDS011;33997;53.278;9.708;2024-01-06T09:19:10;7.60;;;3.83;;
48207;SDS011;33997;53.278;9.708;2024-01-06T09:21:35;7.90;;;4.35;;
48207;SDS011;33997;53.278;9.708;2024-01-06T09:24:01;7.05;;;3.78;;
48207;SDS011;33997;53.278;9.708;2024-01-06T09:26:31;10.00;;;4.83;;
48207;SDS011;33997;53.278;9.708;2024-01-06T09:28:58;9.43;;;4.75;;
48207;SDS011;33997;53.278;9.708;2024-01-06T09:31:25;10.02;;;4.45;;
48207;SDS011;33997;53.278;9.708;2024-01-06T09:33:50;8.05;;;4.25;;
48207;SDS011;33997;53.278;9.708;2024-01-06T09:36:15;11.00;;;4.45;;
48207;SDS011;33997;53.278;9.708;2024-01-06T09:38:41;8.02;;;3.92;;
48207;SDS011;33997;53.278;9.708;2024-01-06T09:41:06;13.23;;;5.47;;
48207;SDS011;33997;53.278;9.708;2024-01-06T09:43:32;8.35;;;4.30;;
48207;SDS011;33997;53.278;9.708;2024-01-06T09:46:05;9.95;;;4.20;;
48207;SDS011;33997;53.278;9.708;2024-01-06T09:48:35;12.38;;;5.53;;
48207;SDS011;33997;53.278;9.708;2024-01-06T09:51:09;8.55;;;4.13;;
48207;SDS011;33997;53.278;9.708;2024-01-06T09:53:35;10.77;;;4.28;;
48207;SDS011;33997;53.278;9.708;2024-01-06T09:56:06;14.13;;;5.72;;
48207;SDS011;33997;53.278;9.708;2024-01-06T09:58:32;9.98;;;4.40;;
48207;SDS011;33997;53.278;9.708;2024-01-06T10:01:00;11.27;;;4.97;;
48207;SDS011;33997;53.278;9.708;2024-01-06T10:03:27;10.05;;;4.13;;
48207;SDS011;33997;53.278;9.708;2024-01-06T10:05:52;11.90;;;5.15;;
48207;SDS011;33997;53.278;9.708;2024-01-06T10:08:18;8.18;;;3.92;;
48207;SDS011;33997;53.278;9.708;2024-01-06T10:10:44;9.65;;;4.22;;
48207;SDS011;33997;53.278;9.708;2024-01-06T10:13:10;9.93;;;4.38;;
48207;SDS011;33997;53.278;9.708;2024-01-06T10:15:37;11.18;;;4.72;;
48207;SDS011;33997;53.278;9.708;2024-01-06T10:18:03;8.13;;;3.60;;
48207;SDS011;33997;53.278;9.708;2024-01-06T10:20:29;8.45;;;4.20;;
48207;SDS011;33997;53.278;9.708;2024-01-06T10:22:54;9.20;;;4.63;;
48207;SDS011;33997;53.278;9.708;2024-01-06T10:25:21;7.85;;;4.55;;
48207;SDS011;33997;53.278;9.708;2024-01-06T10:27:48;10.50;;;4.20;;
48207;SDS011;33997;53.278;9.708;2024-01-06T10:30:14;9.43;;;3.75;;
48207;SDS011;33997;53.278;9.708;2024-01-06T10:32:43;6.75;;;3.70;;
48207;SDS011;33997;53.278;9.708;2024-01-06T10:35:09;9.57;;;4.30;;
48207;SDS011;33997;53.278;9.708;2024-01-06T10:37:34;10.02;;;4.65;;
48207;SDS011;33997;53.278;9.708;2024-01-06T10:40:10;10.18;;;4.05;;
48207;SDS011;33997;53.278;9.708;2024-01-06T10:42:41;9.65;;;4.18;;
48207;SDS011;33997;53.278;9.708;2024-01-06T10:45:08;10.73;;;3.55;;
48207;SDS011;33997;53.278;9.708;2024-01-06T10:47:38;9.45;;;4.43;;
48207;SDS011;33997;53.278;9.708;2024-01-06T10:50:06;7.68;;;3.88;;
48207;SDS011;33997;53.278;9.708;2024-01-06T10:52:33;9.23;;;4.32;;
48207;SDS011;33997;53.278;9.708;2024-01-06T10:54:59;10.98;;;4.10;;
48207;SDS011;33997;53.278;9.708;2024-01-06T10:57:27;9.77;;;4.50;;
48207;SDS011;33997;53.278;9.708;2024-01-06T10:59:56;11.57;;;5.15;;
48207;SDS011;33997;53.278;9.708;2024-01-06T11:02:23;8.98;;;4.18;;
48207;SDS011;33997;53.278;9.708;2024-01-06T11:04:50;7.63;;;3.83;;
48207;SDS011;33997;53.278;9.708;2024-01-06T11:07:17;10.25;;;4.65;;
48207;SDS011;33997;53.278;9.708;2024-01-06T11:12:22;10.23;;;4.50;;
48207;SDS011;33997;53.278;9.708;2024-01-06T11:14:48;11.27;;;4.18;;
48207;SDS011;33997;53.278;9.708;2024-01-06T11:17:21;10.30;;;4.15;;
48207;SDS011;33997;53.278;9.708;2024-01-06T11:20:23;11.57;;;5.13;;
48207;SDS011;33997;53.278;9.708;2024-01-06T11:22:51;9.15;;;4.20;;
48207;SDS011;33997;53.278;9.708;2024-01-06T11:25:19;10.10;;;4.65;;
48207;SDS011;33997;53.278;9.708;2024-01-06T11:27:46;8.30;;;3.90;;
48207;SDS011;33997;53.278;9.708;2024-01-06T11:30:23;8.93;;;4.18;;
48207;SDS011;33997;53.278;9.708;2024-01-06T11:32:53;8.75;;;4.70;;
48207;SDS011;33997;53.278;9.708;2024-01-06T11:35:25;11.75;;;4.65;;
48207;SDS011;33997;53.278;9.708;2024-01-06T11:37:52;8.65;;;4.30;;
48207;SDS011;33997;53.278;9.708;2024-01-06T11:42:55;9.20;;;4.82;;
48207;SDS011;33997;53.278;9.708;2024-01-06T11:45:23;8.82;;;4.18;;
48207;SDS011;33997;53.278;9.708;2024-01-06T11:47:49;8.25;;;4.00;;
48207;SDS011;33997;53.278;9.708;2024-01-06T11:50:20;10.05;;;4.78;;
48207;SDS011;33997;53.278;9.708;2024-01-06T11:52:46;8.05;;;3.25;;
48207;SDS011;33997;53.278;9.708;2024-01-06T11:55:12;11.43;;;4.38;;
48207;SDS011;33997;53.278;9.708;2024-01-06T11:57:38;10.35;;;4.28;;
48207;SDS011;33997;53.278;9.708;2024-01-06T12:00:03;8.30;;;4.50;;
48207;SDS011;33997;53.278;9.708;2024-01-06T12:02:30;10.05;;;3.67;;
48207;SDS011;33997;53.278;9.708;2024-01-06T12:04:55;10.15;;;4.50;;
48207;SDS011;33997;53.278;9.708;2024-01-06T12:07:21;7.57;;;3.60;;
48207;SDS011;33997;53.278;9.708;2024-01-06T12:09:47;8.07;;;3.92;;
48207;SDS011;33997;53.278;9.708;2024-01-06T12:12:15;7.63;;;4.05;;
48207;SDS011;33997;53.278;9.708;2024-01-06T12:14:41;7.43;;;3.83;;
48207;SDS011;33997;53.278;9.708;2024-01-06T12:17:07;10.73;;;4.32;;
48207;SDS011;33997;53.278;9.708;2024-01-06T12:19:33;12.35;;;4.18;;
48207;SDS011;33997;53.278;9.708;2024-01-06T12:21:59;11.38;;;4.45;;
48207;SDS011;33997;53.278;9.708;2024-01-06T12:24:26;9.18;;;3.88;;
48207;SDS011;33997;53.278;9.708;2024-01-06T12:26:52;8.25;;;4.15;;
48207;SDS011;33997;53.278;9.708;2024-01-06T12:29:20;9.82;;;3.85;;
48207;SDS011;33997;53.278;9.708;2024-01-06T12:31:45;8.30;;;3.53;;
48207;SDS011;33997;53.278;9.708;2024-01-06T12:34:11;9.27;;;3.95;;
48207;SDS011;33997;53.278;9.708;2024-01-06T12:36:37;9.57;;;4.18;;
48207;SDS011;33997;53.278;9.708;2024-01-06T12:39:04;10.50;;;4.18;;
48207;SDS011;33997;53.278;9.708;2024-01-06T12:41:31;8.68;;;3.58;;
48207;SDS011;33997;53.278;9.708;2024-01-06T12:43:58;7.50;;;3.67;;
48207;SDS011;33997;53.278;9.708;2024-01-06T12:46:25;8.00;;;3.75;;
48207;SDS011;33997;53.278;9.708;2024-01-06T12:48:51;7.95;;;3.50;;
48207;SDS011;33997;53.278;9.708;2024-01-06T12:51:17;9.88;;;3.85;;
48207;SDS011;33997;53.278;9.708;2024-01-06T12:53:42;8.27;;;3.58;;
48207;SDS011;33997;53.278;9.708;2024-01-06T12:56:07;10.52;;;3.90;;
48207;SDS011;33997;53.278;9.708;2024-01-06T12:58:33;6.72;;;3.17;;
48207;SDS011;33997;53.278;9.708;2024-01-06T13:00:59;7.75;;;3.60;;
48207;SDS011;33997;53.278;9.708;2024-01-06T13:03:24;6.93;;;3.38;;
48207;SDS011;33997;53.278;9.708;2024-01-06T13:05:50;9.32;;;4.07;;
48207;SDS011;33997;53.278;9.708;2024-01-06T13:08:15;9.18;;;4.35;;
48207;SDS011;33997;53.278;9.708;2024-01-06T13:10:41;6.47;;;3.25;;
48207;SDS011;33997;53.278;9.708;2024-01-06T13:13:06;6.50;;;3.72;;
48207;SDS011;33997;53.278;9.708;2024-01-06T13:15:32;8.80;;;3.80;;
48207;SDS011;33997;53.278;9.708;2024-01-06T13:17:57;7.97;;;3.92;;
48207;SDS011;33997;53.278;9.708;2024-01-06T13:20:23;7.28;;;3.63;;
48207;SDS011;33997;53.278;9.708;2024-01-06T13:22:48;6.55;;;2.97;;
48207;SDS011;33997;53.278;9.708;2024-01-06T13:25:16;5.72;;;2.75;;
48207;SDS011;33997;53.278;9.708;2024-01-06T13:27:42;8.65;;;3.20;;
48207;SDS011;33997;53.278;9.708;2024-01-06T13:30:07;7.63;;;3.55;;
48207;SDS011;33997;53.278;9.708;2024-01-06T13:32:33;9.73;;;3.53;;
48207;SDS011;33997;53.278;9.708;2024-01-06T13:34:59;8.70;;;3.75;;
48207;SDS011;33997;53.278;9.708;2024-01-06T13:37:29;8.60;;;3.75;;
48207;SDS011;33997;53.278;9.708;2024-01-06T13:39:56;7.80;;;3.00;;
48207;SDS011;33997;53.278;9.708;2024-01-06T13:42:22;6.30;;;3.47;;
48207;SDS011;33997;53.278;9.708;2024-01-06T13:44:47;7.57;;;3.30;;
48207;SDS011;33997;53.278;9.708;2024-01-06T13:47:13;8.48;;;3.20;;
48207;SDS011;33997;53.278;9.708;2024-01-06T13:49:39;6.53;;;3.63;;
48207;SDS011;33997;53.278;9.708;2024-01-06T13:52:05;6.25;;;3.28;;
48207;SDS011;33997;53.278;9.708;2024-01-06T13:54:32;6.18;;;2.83;;
48207;SDS011;33997;53.278;9.708;2024-01-06T13:57:01;8.13;;;3.75;;
48207;SDS011;33997;53.278;9.708;2024-01-06T13:59:26;6.65;;;3.20;;
48207;SDS011;33997;53.278;9.708;2024-01-06T14:01:52;5.85;;;2.67;;
48207;SDS011;33997;53.278;9.708;2024-01-06T14:04:18;8.60;;;3.08;;
48207;SDS011;33997;53.278;9.708;2024-01-06T14:06:44;7.30;;;2.90;;
48207;SDS011;33997;53.278;9.708;2024-01-06T14:09:12;6.57;;;3.47;;
48207;SDS011;33997;53.278;9.708;2024-01-06T14:11:38;6.38;;;3.13;;
48207;SDS011;33997;53.278;9.708;2024-01-06T14:14:03;6.65;;;3.00;;
48207;SDS011;33997;53.278;9.708;2024-01-06T14:16:29;6.65;;;3.15;;
48207;SDS011;33997;53.278;9.708;2024-01-06T14:18:55;5.63;;;2.75;;
48207;SDS011;33997;53.278;9.708;2024-01-06T14:21:21;7.97;;;3.30;;
48207;SDS011;33997;53.278;9.708;2024-01-06T14:23:47;6.53;;;3.47;;
48207;SDS011;33997;53.278;9.708;2024-01-06T14:26:15;3.97;;;2.30;;
48207;SDS011;33997;53.278;9.708;2024-01-06T14:28:44;6.50;;;2.80;;
48207;SDS011;33997;53.278;9.708;2024-01-06T14:31:10;8.45;;;3.22;;
48207;SDS011;33997;53.278;9.708;2024-01-06T14:33:36;5.00;;;2.78;;
48207;SDS011;33997;53.278;9.708;2024-01-06T14:36:02;8.68;;;3.85;;
48207;SDS011;33997;53.278;9.708;2024-01-06T14:38:28;6.88;;;3.63;;
48207;SDS011;33997;53.278;9.708;2024-01-06T14:40:53;6.68;;;3.15;;
48207;SDS011;33997;53.278;9.708;2024-01-06T14:43:19;7.50;;;2.83;;